Terminal Aerodrome Forecast
Issued by NWS Blacksburg, VA

Home | Current Version | Previous Version | Text Only | Print | Product List | Glossary On
Versions: 1 2 3 4 5 6 7 8 9 10 11 12 13 14 15 16 17 18 19 20 21 22 23 24 25 26 27 28 29 30 31 32 33 34 35 36 37 38 39 40 41 42 43 44 45 46 47
000
FTUS41 KRNK 051344 AAA
TAFROA
TAF AMD
KROA 051344Z 0514/0612 06003KT P6SM OVC021
     FM051500 09005KT P6SM VCSH OVC025
     FM051800 10007KT 3SM -SHRA BR OVC015
      TEMPO 0522/0602 1SM +SHRA BR
     FM060600 11004KT 2SM -SHRA BR BKN007 OVC013=

USA.gov is the U.S. government's official web portal to all federal, state and local government web resources and services.